Time;durP1;ratioP1;P1;durP2;ratioP2;P2;SDS_P1;SDS_P2;PMS_P1;PMS_P2;Temp;Humidity;BMP_temperature;BMP_pressure;BME280_temperature;BME280_humidity;BME280_pressure;Samples;Min_cycle;Max_cycle;Signal;HPM_P1;HPM_P2
2023/05/04 00:00:45;;;;;;;;;;;;;;;15.10;47.43;102081.69;1251275;23;622;-66
2023/05/04 00:01:36;;;;;;;;;;;;;;;15.10;47.27;102073.63;1251158;23;681;-66
2023/05/04 00:02:26;;;;;;;;;;;;;;;15.06;47.21;102075.66;1250635;23;625;-66
2023/05/04 00:03:17;;;;;;;;;;;;;;;15.08;47.51;102078.22;1251117;23;641;-66
2023/05/04 00:04:07;;;;;;;;;;;;;;;15.12;47.60;102069.03;1251172;23;642;-66
2023/05/04 00:04:58;;;;;;;;;;;;;;;15.12;47.34;102083.31;1251178;23;660;-66
2023/05/04 00:05:48;;;;;;;;;;;;;;;15.15;46.98;102079.56;1246835;23;607;-66
2023/05/04 00:06:38;;;;;;;;;;;;;;;15.19;47.19;102073.06;1247167;23;666;-66
2023/05/04 00:07:29;;;;;;;;;;;;;;;15.14;47.00;102073.34;1247329;23;616;-66
2023/05/04 00:08:19;;;;;;;;;;;;;;;15.09;47.61;102069.22;1251251;23;630;-66
2023/05/04 00:09:12;;;;;;;;;;;;;;;15.06;47.51;102064.03;1250911;23;1928;-66
2023/05/04 00:10:02;;;;;;;;;;;;;;;15.03;47.80;102061.59;1247847;23;610;-67
2023/05/04 00:10:54;;;;;;;;;;;;;;;15.04;47.78;102066.84;1250038;23;638;-66
2023/05/04 00:11:45;;;;;;;;;;;;;;;15.08;47.42;102064.81;1250063;23;689;-66
2023/05/04 00:12:35;;;;;;;;;;;;;;;15.03;47.36;102065.13;1249543;23;658;-66
2023/05/04 00:13:26;;;;;;;;;;;;;;;15.05;47.76;102068.53;1251173;23;668;-66
2023/05/04 00:14:16;;;;;;;;;;;;;;;15.00;47.87;102062.63;1251254;23;673;-66
2023/05/04 00:15:06;;;;;;;;;;;;;;;15.00;47.95;102064.47;1251181;23;653;-66
2023/05/04 00:15:57;;;;;;;;;;;;;;;14.98;48.07;102055.63;1251120;23;735;-66
2023/05/04 00:16:48;;;;;;;;;;;;;;;15.02;48.19;102052.66;1251201;23;653;-66
2023/05/04 00:17:38;;;;;;;;;;;;;;;15.01;47.24;102055.44;1247778;23;658;-66
2023/05/04 00:18:29;;;;;;;;;;;;;;;15.03;47.27;102059.75;1250049;23;705;-66
2023/05/04 00:19:19;;;;;;;;;;;;;;;15.00;47.92;102051.03;1247671;23;622;-66
2023/05/04 00:20:10;;;;;;;;;;;;;;;14.99;47.75;102052.00;1247694;23;674;-66
2023/05/04 00:21:01;;;;;;;;;;;;;;;14.99;47.92;102046.63;1249990;23;673;-66
2023/05/04 00:21:51;;;;;;;;;;;;;;;15.00;47.93;102053.72;1247763;23;653;-66
2023/05/04 00:22:41;;;;;;;;;;;;;;;15.04;46.86;102047.19;1248528;23;665;-66
2023/05/04 00:23:32;;;;;;;;;;;;;;;14.99;47.69;102047.50;1249724;23;661;-66
2023/05/04 00:24:22;;;;;;;;;;;;;;;14.94;47.50;102049.59;1251317;23;631;-66
2023/05/04 00:25:13;;;;;;;;;;;;;;;14.90;47.91;102056.97;1247089;23;627;-66
2023/05/04 00:26:03;;;;;;;;;;;;;;;14.90;48.27;102051.59;1251360;23;751;-66
2023/05/04 00:26:54;;;;;;;;;;;;;;;14.99;47.14;102049.31;1251326;23;626;-66
2023/05/04 00:27:44;;;;;;;;;;;;;;;14.91;47.21;102047.09;1251054;23;681;-66
2023/05/04 00:28:34;;;;;;;;;;;;;;;14.87;47.89;102045.56;1251267;23;685;-66
2023/05/04 00:29:25;;;;;;;;;;;;;;;14.90;47.80;102046.25;1250586;23;641;-66
2023/05/04 00:30:15;;;;;;;;;;;;;;;14.91;48.10;102050.66;1251310;23;654;-66
2023/05/04 00:31:06;;;;;;;;;;;;;;;14.90;48.08;102050.75;1247180;23;642;-66
2023/05/04 00:31:56;;;;;;;;;;;;;;;14.92;47.32;102054.19;1251379;23;673;-66
2023/05/04 00:32:47;;;;;;;;;;;;;;;14.90;47.54;102048.06;1251101;23;673;-66
2023/05/04 00:33:37;;;;;;;;;;;;;;;14.89;47.31;102047.19;1251380;23;670;-66
2023/05/04 00:34:27;;;;;;;;;;;;;;;14.86;48.06;102047.41;1251150;23;643;-66
2023/05/04 00:35:18;;;;;;;;;;;;;;;14.87;48.00;102048.25;1248737;23;693;-66
2023/05/04 00:36:08;;;;;;;;;;;;;;;14.88;47.58;102050.84;1251218;23;625;-66
2023/05/04 00:36:59;;;;;;;;;;;;;;;14.87;47.47;102045.56;1251096;23;673;-66
2023/05/04 00:37:50;;;;;;;;;;;;;;;14.85;47.96;102045.69;1247177;23;694;-66
2023/05/04 00:38:41;;;;;;;;;;;;;;;14.81;47.70;102048.66;1251290;23;653;-67
2023/05/04 00:39:34;;;;;;;;;;;;;;;14.80;48.05;102041.56;1250898;23;665;-66
2023/05/04 00:40:24;;;;;;;;;;;;;;;14.83;48.32;102042.25;1250994;23;617;-66
2023/05/04 00:41:15;;;;;;;;;;;;;;;14.85;48.33;102042.16;1251092;23;669;-66
2023/05/04 00:42:06;;;;;;;;;;;;;;;14.90;48.12;102042.69;1246947;23;667;-66
2023/05/04 00:42:56;;;;;;;;;;;;;;;14.90;47.98;102053.44;1251093;23;641;-66
2023/05/04 00:43:46;;;;;;;;;;;;;;;14.88;47.64;102050.84;1251026;23;861;-66
2023/05/04 00:44:40;;;;;;;;;;;;;;;14.84;47.88;102043.97;1251051;23;594;-66
2023/05/04 00:45:30;;;;;;;;;;;;;;;14.86;48.64;102041.19;1246927;23;670;-66
2023/05/04 00:46:21;;;;;;;;;;;;;;;14.88;47.57;102041.94;1250606;23;1193;-66
2023/05/04 00:47:12;;;;;;;;;;;;;;;14.84;48.51;102043.09;1251283;23;622;-66
2023/05/04 00:48:02;;;;;;;;;;;;;;;14.84;47.71;102041.28;1246974;23;666;-67
2023/05/04 00:48:53;;;;;;;;;;;;;;;14.86;48.05;102039.38;1250971;23;1934;-66
2023/05/04 00:49:43;;;;;;;;;;;;;;;14.80;47.94;102042.44;1247326;23;674;-67
2023/05/04 00:50:34;;;;;;;;;;;;;;;14.84;47.65;102038.59;1247478;23;623;-66
2023/05/04 00:51:25;;;;;;;;;;;;;;;14.83;48.36;102041.38;1248041;23;669;-67
2023/05/04 00:52:15;;;;;;;;;;;;;;;14.88;47.67;102033.88;1251141;23;638;-66
2023/05/04 00:53:06;;;;;;;;;;;;;;;14.90;47.66;102027.44;1247211;23;674;-67
2023/05/04 00:53:56;;;;;;;;;;;;;;;14.85;47.90;102031.41;1251297;23;708;-66
2023/05/04 00:54:47;;;;;;;;;;;;;;;14.83;47.80;102034.19;1248679;23;648;-66
2023/05/04 00:55:37;;;;;;;;;;;;;;;14.82;48.21;102035.16;1247642;23;666;-66
2023/05/04 00:56:27;;;;;;;;;;;;;;;14.83;47.75;102025.28;1249938;23;610;-67
2023/05/04 00:57:18;;;;;;;;;;;;;;;14.85;47.72;102026.91;1249644;23;666;-67
2023/05/04 00:58:08;;;;;;;;;;;;;;;14.80;47.27;102023.66;1251252;23;653;-66
2023/05/04 00:58:59;;;;;;;;;;;;;;;14.79;47.70;102026.44;1251116;23;666;-67
2023/05/04 00:59:49;;;;;;;;;;;;;;;14.75;47.35;102025.75;1249550;23;705;-67
2023/05/04 01:00:40;;;;;;;;;;;;;;;14.72;47.73;102027.75;1250606;23;635;-67
2023/05/04 01:01:30;;;;;;;;;;;;;;;14.71;47.94;102020.66;1247431;23;650;-67
2023/05/04 01:02:21;;;;;;;;;;;;;;;14.68;48.18;102024.44;1249930;23;641;-66
2023/05/04 01:03:11;;;;;;;;;;;;;;;14.66;47.62;102023.66;1247988;23;670;-66
2023/05/04 01:04:02;;;;;;;;;;;;;;;14.73;47.99;102024.97;1247115;23;639;-66
2023/05/04 01:04:52;;;;;;;;;;;;;;;14.70;47.87;102019.81;1247624;23;639;-66
2023/05/04 01:05:42;;;;;;;;;;;;;;;14.66;47.75;102022.81;1249967;23;610;-66
2023/05/04 01:06:33;;;;;;;;;;;;;;;14.66;48.20;102017.44;1249290;23;642;-66
2023/05/04 01:07:23;;;;;;;;;;;;;;;14.68;48.33;102018.22;1251241;23;661;-66
2023/05/04 01:08:14;;;;;;;;;;;;;;;14.67;48.27;102009.28;1251120;23;661;-66
2023/05/04 01:09:05;;;;;;;;;;;;;;;14.69;48.19;102017.25;1246749;23;1923;-67
2023/05/04 01:09:55;;;;;;;;;;;;;;;14.71;48.32;102020.66;1247727;23;619;-67
2023/05/04 01:10:45;;;;;;;;;;;;;;;14.71;48.48;102020.66;1247368;23;678;-66
2023/05/04 01:11:36;;;;;;;;;;;;;;;14.70;48.32;102019.81;1248001;23;635;-66
2023/05/04 01:12:26;;;;;;;;;;;;;;;14.70;48.62;102022.50;1251255;23;629;-67
2023/05/04 01:13:17;;;;;;;;;;;;;;;14.71;48.46;102018.84;1251059;23;717;-67
2023/05/04 01:14:07;;;;;;;;;;;;;;;14.76;48.15;102016.75;1249327;23;669;-67
2023/05/04 01:14:58;;;;;;;;;;;;;;;14.76;48.08;102011.38;1246667;23;607;-66
2023/05/04 01:15:48;;;;;;;;;;;;;;;14.69;48.49;102019.94;1247708;23;646;-66
2023/05/04 01:16:38;;;;;;;;;;;;;;;14.63;48.04;102012.25;1249973;23;693;-66
2023/05/04 01:17:29;;;;;;;;;;;;;;;14.64;48.81;102014.00;1247494;23;689;-66
2023/05/04 01:18:19;;;;;;;;;;;;;;;14.58;48.31;102016.09;1248265;23;646;-66
2023/05/04 01:19:10;;;;;;;;;;;;;;;14.61;48.46;102008.81;1249301;23;692;-66
2023/05/04 01:20:00;;;;;;;;;;;;;;;14.65;48.51;102008.53;1251227;23;642;-66
2023/05/04 01:20:51;;;;;;;;;;;;;;;14.67;48.90;102001.25;1251260;23;1317;-66
2023/05/04 01:21:41;;;;;;;;;;;;;;;14.67;48.64;102011.97;1250928;23;626;-66
2023/05/04 01:22:32;;;;;;;;;;;;;;;14.69;48.84;102015.41;1251196;23;531;-66
2023/05/04 01:23:22;;;;;;;;;;;;;;;14.70;49.22;102009.06;1250911;23;606;-66
2023/05/04 01:24:12;;;;;;;;;;;;;;;14.73;49.24;102006.19;1247371;23;646;-67
2023/05/04 01:25:03;;;;;;;;;;;;;;;14.70;48.95;102003.72;1247496;23;615;-67
2023/05/04 01:25:53;;;;;;;;;;;;;;;14.72;48.81;102006.28;1247692;23;651;-66
2023/05/04 01:26:44;;;;;;;;;;;;;;;14.68;48.42;102007.47;1251081;23;669;-66
2023/05/04 01:27:35;;;;;;;;;;;;;;;14.69;48.69;102010.03;1251143;23;645;-66
2023/05/04 01:28:25;;;;;;;;;;;;;;;14.70;48.32;102011.75;1251323;23;756;-66
2023/05/04 01:29:16;;;;;;;;;;;;;;;14.69;48.90;102009.19;1250967;23;1931;-66
2023/05/04 01:30:06;;;;;;;;;;;;;;;14.67;49.13;102000.38;1251021;23;924;-67
2023/05/04 01:30:56;;;;;;;;;;;;;;;14.67;48.55;102005.75;1251078;23;658;-67
2023/05/04 01:31:47;;;;;;;;;;;;;;;14.69;49.27;102009.19;1250999;23;626;-66
2023/05/04 01:32:37;;;;;;;;;;;;;;;14.71;48.51;102000.06;1251321;23;618;-66
2023/05/04 01:33:28;;;;;;;;;;;;;;;14.67;49.17;102003.94;1247420;23;645;-67
2023/05/04 01:34:18;;;;;;;;;;;;;;;14.67;48.90;102003.94;1247653;23;670;-67
2023/05/04 01:35:08;;;;;;;;;;;;;;;14.67;48.89;101998.56;1247769;23;658;-67
2023/05/04 01:35:59;;;;;;;;;;;;;;;14.61;48.45;102009.69;1251001;23;677;-66
2023/05/04 01:36:49;;;;;;;;;;;;;;;14.64;48.80;101998.75;1247255;23;724;-67
2023/05/04 01:37:40;;;;;;;;;;;;;;;14.67;48.72;102005.75;1247490;23;665;-66
2023/05/04 01:38:30;;;;;;;;;;;;;;;14.66;48.43;102001.34;1248015;23;670;-66
2023/05/04 01:39:21;;;;;;;;;;;;;;;14.69;48.33;102001.16;1251056;23;624;-66
2023/05/04 01:40:11;;;;;;;;;;;;;;;14.68;48.19;101997.59;1251132;23;716;-67
2023/05/04 01:41:02;;;;;;;;;;;;;;;14.64;48.66;102003.25;1251082;23;654;-67
2023/05/04 01:41:52;;;;;;;;;;;;;;;14.57;49.19;101998.28;1251049;23;594;-67
2023/05/04 01:42:42;;;;;;;;;;;;;;;14.55;48.60;101999.31;1247431;23;683;-67
2023/05/04 01:43:33;;;;;;;;;;;;;;;14.61;48.47;101995.41;1249735;23;653;-67
2023/05/04 01:44:23;;;;;;;;;;;;;;;14.58;48.05;102005.38;1247613;23;626;-67
2023/05/04 01:45:14;;;;;;;;;;;;;;;14.57;48.13;102002.78;1250986;23;669;-67
2023/05/04 01:46:04;;;;;;;;;;;;;;;14.57;49.01;102003.63;1247401;23;1187;-67
2023/05/04 01:46:55;;;;;;;;;;;;;;;14.62;48.68;101999.81;1249856;23;642;-67
2023/05/04 01:47:45;;;;;;;;;;;;;;;14.66;48.11;102004.03;1248022;23;733;-67
2023/05/04 01:48:35;;;;;;;;;;;;;;;14.67;48.99;101995.03;1246598;23;658;-67
2023/05/04 01:49:26;;;;;;;;;;;;;;;14.68;48.73;101999.44;1247040;23;701;-67
2023/05/04 01:50:16;;;;;;;;;;;;;;;14.66;49.03;101999.53;1249062;23;717;-67
2023/05/04 01:51:07;;;;;;;;;;;;;;;14.64;48.21;101995.22;1247468;23;670;-67
2023/05/04 01:51:57;;;;;;;;;;;;;;;14.59;49.22;101992.81;1249644;23;845;-67
2023/05/04 01:52:48;;;;;;;;;;;;;;;14.59;48.81;101985.63;1251093;23;673;-67
2023/05/04 01:53:38;;;;;;;;;;;;;;;14.62;49.18;101986.41;1250961;23;641;-67
2023/05/04 01:54:29;;;;;;;;;;;;;;;14.61;49.24;101988.22;1246691;23;635;-67
2023/05/04 01:55:19;;;;;;;;;;;;;;;14.63;49.36;101985.44;1250961;23;688;-67
2023/05/04 01:56:09;;;;;;;;;;;;;;;14.65;48.65;101987.06;1248513;23;662;-66
2023/05/04 01:57:01;;;;;;;;;;;;;;;14.62;49.38;101989.06;1251149;23;652;-67
2023/05/04 01:57:51;;;;;;;;;;;;;;;14.62;48.37;101984.56;1247516;23;650;-67
2023/05/04 01:58:41;;;;;;;;;;;;;;;14.58;48.46;101983.03;1249439;23;633;-67
2023/05/04 01:59:32;;;;;;;;;;;;;;;14.54;49.30;101986.88;1249513;23;685;-67
2023/05/04 02:00:22;;;;;;;;;;;;;;;14.55;49.24;101986.78;1251328;23;673;-68
2023/05/04 02:01:13;;;;;;;;;;;;;;;14.55;48.39;101983.22;1250997;23;617;-67
2023/05/04 02:02:03;;;;;;;;;;;;;;;14.54;48.83;101979.69;1247169;23;638;-67
2023/05/04 02:02:54;;;;;;;;;;;;;;;14.58;47.96;101977.69;1251056;23;629;-67
2023/05/04 02:03:44;;;;;;;;;;;;;;;14.53;48.83;101977.09;1250980;23;653;-67
2023/05/04 02:04:34;;;;;;;;;;;;;;;14.50;48.17;101974.63;1251072;23;641;-67
2023/05/04 02:05:25;;;;;;;;;;;;;;;14.47;48.34;101980.19;1248660;23;610;-67
2023/05/04 02:06:15;;;;;;;;;;;;;;;14.49;48.18;101979.13;1251190;23;663;-67
2023/05/04 02:07:06;;;;;;;;;;;;;;;14.45;48.67;101977.59;1247056;23;673;-67
2023/05/04 02:07:56;;;;;;;;;;;;;;;14.45;49.24;101979.41;1251290;23;661;-67
2023/05/04 02:08:47;;;;;;;;;;;;;;;14.42;49.09;101972.41;1246873;23;637;-67
2023/05/04 02:09:37;;;;;;;;;;;;;;;14.41;48.75;101978.75;1250218;23;697;-67
2023/05/04 02:10:27;;;;;;;;;;;;;;;14.45;48.78;101974.06;1250912;23;661;-67
2023/05/04 02:11:18;;;;;;;;;;;;;;;14.47;48.28;101980.19;1250872;23;670;-67
2023/05/04 02:12:08;;;;;;;;;;;;;;;14.50;48.93;101975.50;1251205;23;730;-67
2023/05/04 02:12:59;;;;;;;;;;;;;;;14.46;48.53;101976.63;1250468;23;681;-67
2023/05/04 02:13:49;;;;;;;;;;;;;;;14.40;49.18;101974.34;1251200;23;680;-67
2023/05/04 02:14:40;;;;;;;;;;;;;;;14.36;49.26;101978.13;1250951;23;657;-67
2023/05/04 02:15:30;;;;;;;;;;;;;;;14.41;49.03;101972.50;1250626;23;661;-67
2023/05/04 02:16:21;;;;;;;;;;;;;;;14.41;48.50;101983.25;1251095;23;609;-66
2023/05/04 02:17:11;;;;;;;;;;;;;;;14.40;48.61;101977.00;1250959;23;669;-67
2023/05/04 02:18:01;;;;;;;;;;;;;;;14.42;48.43;101976.94;1251217;23;624;-67
2023/05/04 02:18:52;;;;;;;;;;;;;;;14.40;49.30;101976.13;1246978;23;646;-67
2023/05/04 02:19:42;;;;;;;;;;;;;;;14.41;48.53;101978.75;1249362;23;717;-67
2023/05/04 02:20:33;;;;;;;;;;;;;;;14.38;49.09;101973.53;1250917;23;669;-67
2023/05/04 02:21:23;;;;;;;;;;;;;;;14.39;49.50;101966.34;1251061;23;692;-67
2023/05/04 02:22:15;;;;;;;;;;;;;;;14.43;48.90;101976.81;1250980;23;637;-67
2023/05/04 02:23:05;;;;;;;;;;;;;;;14.45;49.22;101971.38;1247053;23;658;-67
2023/05/04 02:23:56;;;;;;;;;;;;;;;14.44;49.40;101966.97;1251036;23;971;-67
2023/05/04 02:24:46;;;;;;;;;;;;;;;14.46;49.81;101976.63;1251207;23;618;-67
2023/05/04 02:25:37;;;;;;;;;;;;;;;14.47;49.24;101972.13;1250968;23;618;-67
2023/05/04 02:26:27;;;;;;;;;;;;;;;14.46;49.19;101973.97;1250869;23;645;-66
2023/05/04 02:27:18;;;;;;;;;;;;;;;14.47;49.11;101964.09;1251026;23;649;-67
2023/05/04 02:28:08;;;;;;;;;;;;;;;14.48;48.72;101958.63;1250965;23;674;-66
2023/05/04 02:28:58;;;;;;;;;;;;;;;14.47;48.95;101962.28;1251046;23;1897;-66
2023/05/04 02:29:49;;;;;;;;;;;;;;;14.49;49.59;101965.72;1250864;23;696;-66
2023/05/04 02:30:39;;;;;;;;;;;;;;;14.44;49.72;101959.78;1251229;23;637;-66
2023/05/04 02:31:30;;;;;;;;;;;;;;;14.46;48.71;101954.31;1246843;23;616;-66
2023/05/04 02:32:20;;;;;;;;;;;;;;;14.42;49.56;101966.19;1250853;23;642;-67
2023/05/04 02:33:11;;;;;;;;;;;;;;;14.42;49.06;101966.19;1251113;23;618;-67
2023/05/04 02:34:01;;;;;;;;;;;;;;;14.39;49.00;101961.00;1251069;23;632;-66
2023/05/04 02:34:51;;;;;;;;;;;;;;;14.40;49.49;101954.66;1249385;23;689;-66
2023/05/04 02:35:42;;;;;;;;;;;;;;;14.37;49.59;101955.72;1247472;23;628;-66
2023/05/04 02:36:32;;;;;;;;;;;;;;;14.37;49.26;101960.22;1247567;23;747;-66
2023/05/04 02:37:23;;;;;;;;;;;;;;;14.35;49.64;101954.09;1247627;23;670;-66
2023/05/04 02:38:13;;;;;;;;;;;;;;;14.36;49.74;101947.75;1246992;23;698;-66
2023/05/04 02:39:03;;;;;;;;;;;;;;;14.39;49.37;101950.25;1248566;23;650;-66
2023/05/04 02:39:54;;;;;;;;;;;;;;;14.43;49.67;101950.00;1247045;23;682;-66
2023/05/04 02:40:44;;;;;;;;;;;;;;;14.42;49.15;101948.28;1251353;23;642;-66
2023/05/04 02:41:35;;;;;;;;;;;;;;;14.43;48.65;101944.66;1247423;23;674;-67
2023/05/04 02:42:25;;;;;;;;;;;;;;;14.37;49.53;101941.44;1249670;23;654;-66
2023/05/04 02:43:16;;;;;;;;;;;;;;;14.39;48.68;101939.53;1249800;23;669;-66
2023/05/04 02:44:06;;;;;;;;;;;;;;;14.39;48.81;101944.91;1249306;23;669;-66
2023/05/04 02:44:56;;;;;;;;;;;;;;;14.38;48.76;101937.81;1251142;23;670;-66
2023/05/04 02:45:47;;;;;;;;;;;;;;;14.38;48.81;101938.66;1251033;23;689;-66
2023/05/04 02:46:37;;;;;;;;;;;;;;;14.41;48.75;101937.66;1249312;23;662;-66
2023/05/04 02:47:28;;;;;;;;;;;;;;;14.37;48.56;101944.13;1251118;23;744;-66
2023/05/04 02:48:18;;;;;;;;;;;;;;;14.27;48.67;101929.59;1247186;23;662;-66
2023/05/04 02:49:09;;;;;;;;;;;;;;;14.28;49.17;101936.69;1250957;23;1905;-66
2023/05/04 02:49:59;;;;;;;;;;;;;;;14.28;48.96;101940.22;1250981;23;685;-66
2023/05/04 02:50:50;;;;;;;;;;;;;;;14.28;49.13;101939.38;1251092;23;617;-66
2023/05/04 02:51:41;;;;;;;;;;;;;;;14.27;48.69;101934.97;1250929;23;636;-66
2023/05/04 02:52:31;;;;;;;;;;;;;;;14.24;49.48;101936.00;1247439;23;729;-66
2023/05/04 02:53:21;;;;;;;;;;;;;;;14.23;49.27;101932.47;1247195;23;619;-66
2023/05/04 02:54:12;;;;;;;;;;;;;;;14.25;49.52;101940.41;1247660;23;611;-66
2023/05/04 02:55:02;;;;;;;;;;;;;;;14.29;49.30;101931.22;1251153;23;629;-66
2023/05/04 02:55:53;;;;;;;;;;;;;;;14.34;50.14;101929.09;1249416;23;618;-66
2023/05/04 02:56:43;;;;;;;;;;;;;;;14.35;49.62;101933.50;1250522;23;649;-66
2023/05/04 02:57:34;;;;;;;;;;;;;;;14.36;49.46;101945.09;1246736;23;722;-66
2023/05/04 02:58:24;;;;;;;;;;;;;;;14.36;49.11;101934.34;1250907;23;697;-66
2023/05/04 02:59:15;;;;;;;;;;;;;;;14.35;48.69;101935.31;1246423;23;826;-66
2023/05/04 03:00:05;;;;;;;;;;;;;;;14.27;48.92;101938.50;1248603;23;701;-66
2023/05/04 03:00:56;;;;;;;;;;;;;;;14.26;48.99;101931.41;1251229;23;630;-66
2023/05/04 03:01:46;;;;;;;;;;;;;;;14.29;49.47;101938.41;1251303;23;645;-66
2023/05/04 03:02:36;;;;;;;;;;;;;;;14.30;50.08;101934.75;1251616;23;661;-66
2023/05/04 03:03:27;;;;;;;;;;;;;;;14.32;49.77;101946.25;1251296;23;617;-66
2023/05/04 03:04:17;;;;;;;;;;;;;;;14.33;49.00;101939.94;1251209;23;685;-66
2023/05/04 03:05:08;;;;;;;;;;;;;;;14.28;48.65;101929.50;1251520;23;624;-66
2023/05/04 03:05:58;;;;;;;;;;;;;;;14.29;49.07;101938.41;1251210;23;654;-66
2023/05/04 03:06:49;;;;;;;;;;;;;;;14.21;49.29;101937.06;1251413;23;641;-66
2023/05/04 03:07:39;;;;;;;;;;;;;;;14.18;49.23;101933.69;1247805;23;713;-67
2023/05/04 03:08:30;;;;;;;;;;;;;;;14.18;49.36;101937.25;1247497;23;658;-66
2023/05/04 03:09:20;;;;;;;;;;;;;;;14.17;48.66;101945.38;1248031;23;1893;-66
2023/05/04 03:10:11;;;;;;;;;;;;;;;14.15;49.54;101932.06;1251458;23;529;-66
2023/05/04 03:11:01;;;;;;;;;;;;;;;14.16;49.41;101930.25;1246783;23;754;-66
2023/05/04 03:11:51;;;;;;;;;;;;;;;14.18;49.12;101936.38;1251547;23;650;-66
2023/05/04 03:12:43;;;;;;;;;;;;;;;14.23;49.11;101935.13;1251303;23;614;-66
2023/05/04 03:13:34;;;;;;;;;;;;;;;14.20;49.01;101935.34;1247052;23;611;-67
2023/05/04 03:14:25;;;;;;;;;;;;;;;14.19;48.53;101933.59;1247769;23;732;-66
2023/05/04 03:15:15;;;;;;;;;;;;;;;14.18;48.79;101931.03;1247815;23;655;-66
2023/05/04 03:16:06;;;;;;;;;;;;;;;14.22;49.01;101927.19;1247942;23;638;-66
2023/05/04 03:16:56;;;;;;;;;;;;;;;14.17;49.48;101929.28;1251367;23;653;-66
2023/05/04 03:17:47;;;;;;;;;;;;;;;14.14;49.84;101927.69;1251565;23;653;-66
2023/05/04 03:18:37;;;;;;;;;;;;;;;14.15;49.38;101925.88;1251271;23;634;-66
2023/05/04 03:19:27;;;;;;;;;;;;;;;14.17;48.90;101922.13;1251497;23;610;-66
2023/05/04 03:20:18;;;;;;;;;;;;;;;14.18;49.00;101929.19;1247631;23;702;-66
2023/05/04 03:21:08;;;;;;;;;;;;;;;14.13;48.97;101925.97;1247465;23;683;-66
2023/05/04 03:21:59;;;;;;;;;;;;;;;14.11;49.51;101927.03;1247958;23;667;-65
2023/05/04 03:22:49;;;;;;;;;;;;;;;14.15;49.64;101923.19;1251204;23;665;-65
2023/05/04 03:23:40;;;;;;;;;;;;;;;14.15;49.81;101925.88;1251293;23;656;-65
2023/05/04 03:24:30;;;;;;;;;;;;;;;14.17;49.10;101927.47;1251312;23;638;-65
2023/05/04 03:25:21;;;;;;;;;;;;;;;14.18;49.82;101931.03;1251378;23;626;-66
2023/05/04 03:26:11;;;;;;;;;;;;;;;14.18;49.34;101922.97;1249469;23;613;-65
2023/05/04 03:27:02;;;;;;;;;;;;;;;14.16;49.16;101924.88;1251259;23;626;-65
2023/05/04 03:27:52;;;;;;;;;;;;;;;14.13;49.68;101920.59;1251125;23;644;-65
2023/05/04 03:28:43;;;;;;;;;;;;;;;14.12;49.80;101929.59;1251406;23;644;-65
2023/05/04 03:29:33;;;;;;;;;;;;;;;14.12;49.14;101928.75;1251226;23;648;-65
2023/05/04 03:30:24;;;;;;;;;;;;;;;14.12;49.70;101921.56;1251389;23;652;-65
2023/05/04 03:31:14;;;;;;;;;;;;;;;14.12;49.55;101928.75;1247363;23;666;-66
2023/05/04 03:32:05;;;;;;;;;;;;;;;14.12;49.42;101926.94;1249651;23;744;-66
2023/05/04 03:32:56;;;;;;;;;;;;;;;14.15;50.01;101921.34;1251546;23;708;-66
2023/05/04 03:33:46;;;;;;;;;;;;;;;14.13;50.15;101923.28;1251292;23;712;-66
2023/05/04 03:34:36;;;;;;;;;;;;;;;14.15;49.91;101918.66;1251497;23;684;-66
2023/05/04 03:35:27;;;;;;;;;;;;;;;14.15;49.36;101910.63;1251222;23;622;-66
2023/05/04 03:36:17;;;;;;;;;;;;;;;14.19;49.20;101922.03;1251112;23;653;-66
2023/05/04 03:37:08;;;;;;;;;;;;;;;14.20;49.64;101915.69;1247733;23;666;-66
2023/05/04 03:37:58;;;;;;;;;;;;;;;14.23;49.05;101913.69;1250075;23;670;-66
2023/05/04 03:38:49;;;;;;;;;;;;;;;14.20;49.09;101913.03;1247863;23;531;-66
2023/05/04 03:39:39;;;;;;;;;;;;;;;14.17;49.82;101915.88;1251274;23;621;-65
2023/05/04 03:40:30;;;;;;;;;;;;;;;14.18;49.38;101920.28;1247461;23;644;-66
2023/05/04 03:41:20;;;;;;;;;;;;;;;14.15;49.33;101913.31;1251149;23;629;-66
2023/05/04 03:42:10;;;;;;;;;;;;;;;14.18;49.25;101914.94;1251444;23;621;-66
2023/05/04 03:43:01;;;;;;;;;;;;;;;14.17;49.41;101919.44;1251337;23;828;-66
2023/05/04 03:43:51;;;;;;;;;;;;;;;14.16;49.04;101919.53;1251319;23;645;-66
2023/05/04 03:44:42;;;;;;;;;;;;;;;14.18;49.53;101915.78;1251366;23;791;-66
2023/05/04 03:45:32;;;;;;;;;;;;;;;14.15;49.49;101924.03;1247223;23;540;-65
2023/05/04 03:46:22;;;;;;;;;;;;;;;14.17;49.81;101921.25;1249415;23;1205;-65
2023/05/04 03:47:13;;;;;;;;;;;;;;;14.17;49.36;101921.25;1247109;23;654;-66
2023/05/04 03:48:04;;;;;;;;;;;;;;;14.17;49.91;101913.22;1251137;23;621;-66
2023/05/04 03:48:54;;;;;;;;;;;;;;;14.16;49.95;101922.22;1251169;23;697;-67
2023/05/04 03:49:45;;;;;;;;;;;;;;;14.17;49.01;101921.25;1247460;23;623;-66
2023/05/04 03:50:36;;;;;;;;;;;;;;;14.16;50.10;101914.16;1247788;23;647;-65
2023/05/04 03:51:26;;;;;;;;;;;;;;;14.10;49.30;101914.56;1247952;23;615;-66
2023/05/04 03:52:16;;;;;;;;;;;;;;;14.05;49.06;101904.13;1247466;23;639;-66
2023/05/04 03:53:07;;;;;;;;;;;;;;;14.09;49.35;101907.47;1247776;23;937;-66
2023/05/04 03:53:57;;;;;;;;;;;;;;;14.09;49.28;101905.66;1249941;23;637;-66
2023/05/04 03:54:48;;;;;;;;;;;;;;;14.07;49.75;101914.75;1247552;23;658;-66
2023/05/04 03:55:38;;;;;;;;;;;;;;;14.06;49.54;101902.31;1247740;23;698;-65
2023/05/04 03:56:29;;;;;;;;;;;;;;;14.08;50.33;101901.25;1247381;23;626;-66
2023/05/04 03:57:21;;;;;;;;;;;;;;;14.14;48.95;101900.03;1249831;23;669;-66
2023/05/04 03:58:11;;;;;;;;;;;;;;;14.10;48.98;101904.72;1249242;23;673;-65
2023/05/04 03:59:02;;;;;;;;;;;;;;;14.10;48.52;101904.72;1249708;23;645;-65
2023/05/04 03:59:52;;;;;;;;;;;;;;;14.08;48.92;101893.22;1251147;23;606;-65
2023/05/04 04:00:42;;;;;;;;;;;;;;;14.08;48.87;101895.03;1249491;23;718;-65
2023/05/04 04:01:33;;;;;;;;;;;;;;;13.99;49.64;101899.13;1251189;23;644;-65
2023/05/04 04:02:23;;;;;;;;;;;;;;;14.00;50.09;101911.59;1251087;23;709;-65
2023/05/04 04:03:14;;;;;;;;;;;;;;;14.00;49.70;101900.00;1251241;23;628;-65
2023/05/04 04:04:04;;;;;;;;;;;;;;;14.02;49.72;101898.97;1251262;23;673;-66
2023/05/04 04:04:55;;;;;;;;;;;;;;;14.03;49.64;101905.19;1251380;23;677;-65
2023/05/04 04:05:45;;;;;;;;;;;;;;;14.02;48.91;101906.13;1251171;23;673;-65
2023/05/04 04:06:36;;;;;;;;;;;;;;;14.00;49.22;101906.22;1251423;23;657;-65
2023/05/04 04:07:26;;;;;;;;;;;;;;;14.00;49.73;101900.88;1251356;23;657;-66
2023/05/04 04:08:16;;;;;;;;;;;;;;;14.02;49.48;101909.69;1247480;23;690;-66
2023/05/04 04:09:07;;;;;;;;;;;;;;;14.04;48.63;101902.41;1250592;23;2212;-66
2023/05/04 04:09:57;;;;;;;;;;;;;;;14.07;48.91;101909.41;1251080;23;713;-65
2023/05/04 04:10:48;;;;;;;;;;;;;;;13.99;49.20;101907.19;1247413;23;674;-66
2023/05/04 04:11:38;;;;;;;;;;;;;;;13.99;48.87;101903.63;1249933;23;638;-65
2023/05/04 04:12:28;;;;;;;;;;;;;;;13.97;49.11;101903.75;1249382;23;739;-66
2023/05/04 04:13:19;;;;;;;;;;;;;;;13.96;49.08;101904.72;1251185;23;670;-66
2023/05/04 04:14:10;;;;;;;;;;;;;;;14.01;49.20;101902.59;1251001;23;641;-66
2023/05/04 04:15:00;;;;;;;;;;;;;;;13.99;48.35;101901.81;1247205;23;631;-66
2023/05/04 04:15:51;;;;;;;;;;;;;;;13.93;48.79;101904.91;1247032;23;666;-66
2023/05/04 04:16:41;;;;;;;;;;;;;;;13.93;48.88;101901.38;1249625;23;621;-65
2023/05/04 04:17:32;;;;;;;;;;;;;;;13.95;48.77;101902.13;1249425;23;673;-66
2023/05/04 04:18:22;;;;;;;;;;;;;;;13.96;49.50;101893.13;1251194;23;598;-66
2023/05/04 04:19:13;;;;;;;;;;;;;;;13.98;49.44;101899.22;1246937;23;709;-66
2023/05/04 04:20:03;;;;;;;;;;;;;;;13.98;49.10;101900.09;1248759;23;673;-66
2023/05/04 04:20:53;;;;;;;;;;;;;;;13.95;49.54;101892.28;1246963;23;670;-66
2023/05/04 04:21:44;;;;;;;;;;;;;;;13.96;48.95;101898.50;1247620;23;631;-66
2023/05/04 04:22:34;;;;;;;;;;;;;;;13.93;50.09;101893.31;1247634;23;648;-66
2023/05/04 04:23:25;;;;;;;;;;;;;;;13.94;49.16;101901.28;1247329;23;666;-66
2023/05/04 04:24:15;;;;;;;;;;;;;;;13.95;50.17;101886.91;1251146;23;653;-66
2023/05/04 04:25:06;;;;;;;;;;;;;;;13.94;49.50;101890.56;1251403;23;685;-66
2023/05/04 04:25:57;;;;;;;;;;;;;;;13.92;49.51;101892.47;1248595;23;694;-66
2023/05/04 04:26:47;;;;;;;;;;;;;;;13.97;49.43;101893.03;1247667;23;619;-66